»·PEaware :: AAL692 KPHX-PHNL

AAL692 :: KPHX-PHNL

FLIGHT INFORMATION

Flight Status: Arrived
Operator:
American Airlines
More flights by this operator :: More flights under this callsign
Pilot: Anonymous 27097 (27097)
Aircraft: AIRBUS A330-300
(A333)
More flights by this aircraft type
Origin: KPHX Phoenix Sky Harbor Intl
United States
Destination: PHNL Honolulu Intl
United States
More flights between these airports :: More routes between these airports
Route: KEENS2 HRRBR CURIV J212 DECAS PSP PDZ J74 LAX C1316 DINTY R576 DENNS KAENA2
File this flight plan on PilotEdge
Remarks:
Altitude:
(Current/Filed)
38,000ft
Speed:
(Current/Filed)
454kts
Departed: 05-Jan-20 05:27 PM
Arrived: 05-Jan-20 06:55 PM
Distance/Time
Traveled:
2530nm/1:27
Distance/Time
To Go:
Arrived

Flight Plot

Page will automatically refresh every two minutes.


Map Options




Map Legend


Flown Route
Filed Route
Departure Airport
Arrival Airport
Navaid (VOR, NDB)
Fix

Horizontal Profiles

Position Reports

Time Latitude Longitude Heading Altitude Ground
Speed
05-Jan-20 17:25 24.647802 -149.200686 246 38240ft 451kts
05-Jan-20 17:26 24.590842 -149.323472 246 38239ft 450kts
05-Jan-20 17:27 24.533956 -149.445790 247 38239ft 450kts
05-Jan-20 17:28 24.476952 -149.568024 247 38238ft 450kts
05-Jan-20 17:29 24.419707 -149.690449 247 38234ft 449kts
05-Jan-20 17:30 24.362633 -149.812206 247 38233ft 449kts
05-Jan-20 17:31 24.305375 -149.934022 247 38233ft 449kts
05-Jan-20 17:32 24.248079 -150.055588 247 38232ft 448kts
05-Jan-20 17:33 24.190599 -150.177251 247 38231ft 448kts
05-Jan-20 17:34 24.133153 -150.298525 247 38231ft 449kts
05-Jan-20 17:35 24.075706 -150.419489 247 38230ft 449kts
05-Jan-20 17:36 24.017951 -150.540778 247 38229ft 448kts
05-Jan-20 17:37 23.960411 -150.661296 247 38229ft 447kts
05-Jan-20 17:38 23.902761 -150.781763 248 38228ft 446kts
05-Jan-20 17:39 23.845081 -150.901986 248 38228ft 446kts
05-Jan-20 17:40 23.787286 -151.022141 248 38227ft 446kts
05-Jan-20 17:41 23.729467 -151.142060 248 38227ft 446kts
05-Jan-20 17:42 23.671717 -151.261517 248 38226ft 446kts
05-Jan-20 17:43 23.613775 -151.381086 248 38226ft 445kts
05-Jan-20 17:44 23.555822 -151.500395 248 38226ft 445kts
05-Jan-20 17:45 23.497784 -151.619575 249 38225ft 445kts
05-Jan-20 17:46 23.439759 -151.738440 248 38225ft 445kts
05-Jan-20 17:47 23.381487 -151.857519 249 38224ft 445kts
05-Jan-20 17:48 23.323125 -151.976482 249 38224ft 445kts
05-Jan-20 17:49 23.264839 -152.095001 249 38224ft 443kts
05-Jan-20 17:50 23.206638 -152.213069 249 38223ft 442kts
05-Jan-20 17:52 23.148421 -152.330900 250 38223ft 442kts
05-Jan-20 17:53 23.090169 -152.448516 250 38223ft 442kts
05-Jan-20 17:54 23.031768 -152.566145 250 38222ft 442kts
05-Jan-20 17:55 22.972363 -152.683134 250 38222ft 442kts
05-Jan-20 17:56 22.913200 -152.800023 250 38222ft 442kts
05-Jan-20 17:57 22.854208 -152.916882 250 38221ft 441kts
05-Jan-20 17:58 22.795607 -153.032982 250 38222ft 440kts
05-Jan-20 17:59 22.736927 -153.149139 251 38221ft 439kts
05-Jan-20 18:00 22.678224 -153.265162 251 38221ft 439kts
05-Jan-20 18:01 22.619446 -153.381120 251 38220ft 438kts
05-Jan-20 18:02 22.560768 -153.496601 251 38221ft 438kts
05-Jan-20 18:03 22.502142 -153.611711 251 38220ft 435kts
05-Jan-20 18:04 22.443497 -153.726624 252 38220ft 436kts
05-Jan-20 18:05 22.385348 -153.840983 255 38219ft 431kts
05-Jan-20 18:06 22.354738 -153.960899 271 38220ft 407kts
05-Jan-20 18:07 22.338931 -154.081478 272 38201ft 403kts
05-Jan-20 18:08 22.323950 -154.201913 272 38199ft 405kts
05-Jan-20 18:09 22.308987 -154.322208 272 38196ft 404kts
05-Jan-20 18:10 22.293951 -154.442553 272 38196ft 404kts
05-Jan-20 18:11 22.278819 -154.562932 272 38196ft 404kts
05-Jan-20 18:11 22.266139 -154.663188 272 38196ft 402kts
05-Jan-20 18:13 22.248369 -154.802878 272 38196ft 403kts
05-Jan-20 18:13 22.235630 -154.902366 272 38197ft 402kts
05-Jan-20 18:14 22.220269 -155.021678 272 38197ft 400kts
05-Jan-20 18:15 22.204925 -155.140172 272 38204ft 399kts
05-Jan-20 18:16 22.189479 -155.258713 272 38194ft 398kts
05-Jan-20 18:17 22.173987 -155.376959 272 38194ft 398kts
05-Jan-20 18:18 22.158408 -155.495101 272 38193ft 396kts
05-Jan-20 18:19 22.142815 -155.612791 272 38242ft 395kts
05-Jan-20 18:20 22.127179 -155.730041 272 38247ft 394kts
05-Jan-20 18:21 22.111494 -155.847185 272 38011ft 398kts
05-Jan-20 18:22 22.095549 -155.965508 272 37010ft 400kts
05-Jan-20 18:23 22.079311 -156.085461 272 36014ft 408kts
05-Jan-20 18:24 22.062730 -156.207247 271 35020ft 415kts
05-Jan-20 18:25 22.045722 -156.331332 271 34017ft 417kts
05-Jan-20 18:26 22.028331 -156.454529 270 33017ft 414kts
05-Jan-20 18:27 22.011179 -156.576842 269 32015ft 410kts
05-Jan-20 18:28 21.994204 -156.698144 269 31014ft 408kts
05-Jan-20 18:29 21.977307 -156.818816 268 30013ft 406kts
05-Jan-20 18:30 21.960437 -156.938528 267 29012ft 403kts
05-Jan-20 18:31 21.943602 -157.057474 267 28009ft 399kts
05-Jan-20 18:32 21.926904 -157.174924 266 27009ft 395kts
05-Jan-20 18:33 21.910224 -157.291689 266 25574ft 394kts
05-Jan-20 18:34 21.893318 -157.410123 264 23338ft 402kts
05-Jan-20 18:35 21.876458 -157.526171 264 22000ft 386kts
05-Jan-20 18:36 21.859768 -157.640981 264 20014ft 389kts
05-Jan-20 18:37 21.843186 -157.754309 263 18604ft 376kts
05-Jan-20 18:38 21.826841 -157.865667 263 16767ft 377kts
05-Jan-20 18:39 21.810013 -157.976172 258 15114ft 373kts
05-Jan-20 18:40 21.766090 -158.080495 242 12935ft 383kts
05-Jan-20 18:41 21.718903 -158.177971 242 11577ft 353kts
05-Jan-20 18:42 21.673295 -158.270803 235 6056ft 388kts
05-Jan-20 18:43 21.602659 -158.325274 205 6897ft 273kts
05-Jan-20 18:44 21.539339 -158.354711 167 6452ft 239kts
05-Jan-20 18:45 21.481336 -158.326144 146 4943ft 220kts
05-Jan-20 18:46 21.424992 -158.292877 146 4050ft 236kts
05-Jan-20 18:47 21.369913 -158.259942 145 4026ft 229kts
05-Jan-20 18:48 21.333507 -158.207263 97 3585ft 238kts
05-Jan-20 18:49 21.326111 -158.144193 92 3481ft 210kts
05-Jan-20 18:50 21.325242 -158.080063 89 2452ft 214kts
05-Jan-20 18:51 21.325240 -158.027355 88 1550ft 144kts
05-Jan-20 18:52 21.325241 -157.984936 87 799ft 137kts
05-Jan-20 18:53 21.325242 -157.946040 87 118ft 123kts
05-Jan-20 18:54 21.325357 -157.928879 56 30ft 16kts
05-Jan-20 18:55 21.326548 -157.926665 61 30ft 0kts

Navigation Log

Ident Type
Flight plan parsing failed, navigation log unavailable